Time;durP1;ratioP1;P1;durP2;ratioP2;P2;SDS_P1;SDS_P2;PMS_P1;PMS_P2;Temp;Humidity;BMP_temperature;BMP_pressure;BME280_temperature;BME280_humidity;BME280_pressure;Samples;Min_cycle;Max_cycle;Signal;HPM_P1;HPM_P2
2022/02/12 00:00:52;;;;;;;20.63;15.30;;;;;;;0.23;91.17;96797.81;5089833;28;20125;-56
2022/02/12 00:03:18;;;;;;;19.58;13.75;;;;;;;0.27;91.45;96793.38;5089472;28;20032;-57
2022/02/12 00:05:43;;;;;;;20.65;14.77;;;;;;;0.28;91.90;96795.91;5088815;28;20024;-56
2022/02/12 00:08:09;;;;;;;15.00;11.48;;;;;;;0.29;92.42;96783.81;5088321;28;20028;-57
2022/02/12 00:10:35;;;;;;;9.05;8.10;;;;;;;0.36;91.71;96785.28;5089041;28;20059;-57
2022/02/12 00:13:00;;;;;;;8.73;6.68;;;;;;;0.38;91.22;96782.66;5086353;28;20063;-56
2022/02/12 00:15:26;;;;;;;8.40;7.28;;;;;;;0.37;91.92;96780.97;5084545;28;20064;-58
2022/02/12 00:17:51;;;;;;;7.25;5.90;;;;;;;0.40;91.97;96780.84;5083969;28;20135;-56
2022/02/12 00:20:17;;;;;;;9.43;6.93;;;;;;;0.43;91.38;96780.75;5087665;28;20036;-58
2022/02/12 00:22:43;;;;;;;8.95;6.80;;;;;;;0.46;90.35;96785.00;5088220;28;20558;-58
2022/02/12 00:25:09;;;;;;;9.63;7.53;;;;;;;0.55;89.79;96774.28;5088338;28;20028;-57
2022/02/12 00:27:34;;;;;;;6.22;5.63;;;;;;;0.50;90.25;96776.19;5080329;28;20035;-57
2022/02/12 00:30:00;;;;;;;6.40;5.78;;;;;;;0.48;90.65;96776.25;5085713;28;20027;-58
2022/02/12 00:32:26;;;;;;;6.47;5.80;;;;;;;0.49;90.81;96770.16;5086812;28;20519;-56
2022/02/12 00:34:51;;;;;;;5.80;5.30;;;;;;;0.54;89.65;96760.47;5088609;28;20029;-56
2022/02/12 00:37:17;;;;;;;8.35;5.72;;;;;;;0.58;89.33;96758.63;5086131;28;20070;-56
2022/02/12 00:39:42;;;;;;;7.70;6.00;;;;;;;0.58;89.42;96750.84;5089912;28;20044;-58
2022/02/12 00:42:08;;;;;;;29.38;12.20;;;;;;;0.60;87.91;96751.66;5081718;28;20107;-56
2022/02/12 00:44:33;;;;;;;54.50;17.52;;;;;;;0.64;87.89;96752.38;5083701;28;20034;-57
2022/02/12 00:46:59;;;;;;;108.00;33.72;;;;;;;0.67;87.14;96753.13;5083783;28;20031;-57
2022/02/12 00:49:24;;;;;;;150.63;38.75;;;;;;;0.71;87.37;96749.53;5070618;28;20032;-56
2022/02/12 00:51:51;;;;;;;44.63;16.67;;;;;;;0.71;86.24;96749.53;5084955;28;20028;-57
2022/02/12 00:54:17;;;;;;;41.88;14.15;;;;;;;0.70;86.00;96747.84;5080778;28;20420;-58
2022/02/12 00:56:42;;;;;;;110.40;30.02;;;;;;;0.70;87.35;96752.16;5080439;28;20028;-58
2022/02/12 00:59:08;;;;;;;96.68;28.17;;;;;;;0.68;87.71;96749.66;5089236;28;20523;-57
2022/02/12 01:01:34;;;;;;;141.38;35.22;;;;;;;0.65;87.69;96747.13;5086300;28;20028;-54
2022/02/12 01:04:00;;;;;;;127.13;34.25;;;;;;;0.60;87.70;96745.63;5085342;28;20024;-57
2022/02/12 01:06:26;;;;;;;44.92;15.40;;;;;;;0.54;88.11;96742.31;5082841;28;20039;-55
2022/02/12 01:08:51;;;;;;;37.65;12.75;;;;;;;0.52;87.88;96743.31;5089373;28;20040;-55
2022/02/12 01:11:17;;;;;;;20.90;7.78;;;;;;;0.50;87.04;96739.91;5088645;28;20039;-56
2022/02/12 01:13:43;;;;;;;17.23;7.93;;;;;;;0.47;86.81;96738.28;5082294;28;20599;-56
2022/02/12 01:16:08;;;;;;;20.15;8.82;;;;;;;0.46;87.65;96738.34;5080175;28;20031;-56
2022/02/12 01:18:34;;;;;;;29.10;11.07;;;;;;;0.36;88.24;96732.63;5084323;28;20164;-56
2022/02/12 01:21:00;;;;;;;36.70;12.20;;;;;;;0.29;88.61;96742.38;5087541;28;20035;-57
2022/02/12 01:23:26;;;;;;;17.80;8.90;;;;;;;0.23;89.18;96735.63;5084508;28;20067;-56
2022/02/12 01:25:52;;;;;;;19.35;8.13;;;;;;;0.21;89.37;96734.84;5081099;28;20024;-56
2022/02/12 01:28:18;;;;;;;10.50;7.00;;;;;;;0.22;89.12;96733.94;5084289;28;20038;-57
2022/02/12 01:30:44;;;;;;;9.23;7.00;;;;;;;0.22;89.57;96730.50;5084383;28;20068;-57
2022/02/12 01:33:10;;;;;;;12.98;7.13;;;;;;;0.20;89.82;96729.72;5086553;28;20055;-57
2022/02/12 01:35:36;;;;;;;11.68;7.00;;;;;;;0.19;90.50;96721.09;5084210;28;20036;-55
2022/02/12 01:38:01;;;;;;;11.77;8.55;;;;;;;0.14;90.16;96725.59;5068401;28;20021;-55
2022/02/12 01:40:27;;;;;;;10.95;7.95;;;;;;;0.12;90.22;96730.81;5084729;28;20031;-55
2022/02/12 01:42:53;;;;;;;13.95;9.57;;;;;;;0.16;89.59;96729.00;5084361;28;20028;-54
2022/02/12 01:45:18;;;;;;;14.80;11.90;;;;;;;0.14;89.46;96729.03;5081907;28;20043;-56
2022/02/12 01:47:44;;;;;;;30.70;20.17;;;;;;;0.17;89.20;96733.25;5084551;28;20028;-57
2022/02/12 01:50:09;;;;;;;29.00;20.35;;;;;;;0.05;90.86;96739.72;5086738;28;20377;-57
2022/02/12 01:52:37;;;;;;;27.05;19.48;;;;;;;0.04;90.51;96732.84;5080426;28;20052;-57
2022/02/12 01:55:04;;;;;;;24.42;17.25;;;;;;;0.00;90.11;96731.25;5080977;28;20032;-55
2022/02/12 01:57:30;;;;;;;27.80;15.65;;;;;;;0.10;89.26;96729.19;5086745;28;20077;-57
2022/02/12 01:59:56;;;;;;;16.52;11.90;;;;;;;0.13;88.84;96732.50;5088440;28;20445;-56
2022/02/12 02:02:21;;;;;;;16.30;11.65;;;;;;;0.16;89.05;96734.16;5088621;28;20488;-56
2022/02/12 02:04:48;;;;;;;13.82;11.02;;;;;;;0.07;90.16;96731.88;5078283;28;20024;-58
2022/02/12 02:07:13;;;;;;;14.18;10.68;;;;;;;0.05;90.00;96731.09;5079966;28;20025;-57
2022/02/12 02:09:39;;;;;;;16.05;11.45;;;;;;;0.04;91.31;96729.38;5084033;28;20163;-55
2022/02/12 02:12:05;;;;;;;15.18;11.60;;;;;;;-0.02;91.57;96731.28;5085222;28;20063;-56
2022/02/12 02:14:36;;;;;;;11.10;9.73;;;;;;;-0.07;92.60;96728.03;5081288;28;20040;-56
2022/02/12 02:17:02;;;;;;;11.23;10.02;;;;;;;-0.09;92.31;96732.41;5086381;28;20047;-57
2022/02/12 02:19:30;;;;;;;13.18;10.30;;;;;;;-0.08;92.37;96722.88;5082702;28;20113;-55
2022/02/12 02:21:56;;;;;;;10.95;8.73;;;;;;;-0.12;92.00;96716.94;5082593;28;20036;-56
2022/02/12 02:24:22;;;;;;;11.90;9.10;;;;;;;-0.15;92.84;96728.25;5083778;28;20070;-58
2022/02/12 02:26:48;;;;;;;9.43;8.45;;;;;;;-0.18;92.60;96717.16;5081409;28;20086;-57
2022/02/12 02:29:13;;;;;;;9.85;8.88;;;;;;;-0.23;92.67;96722.47;5085260;28;20443;-57
2022/02/12 02:31:39;;;;;;;10.57;8.80;;;;;;;-0.24;92.74;96719.97;5082639;28;20078;-56
2022/02/12 02:34:12;;;;;;;10.70;8.82;;;;;;;-0.27;92.95;96720.06;5089780;28;20115;-55
2022/02/12 02:36:38;;;;;;;13.23;9.40;;;;;;;-0.30;92.47;96721.84;5084159;28;20024;-57
2022/02/12 02:39:05;;;;;;;10.50;8.65;;;;;;;-0.36;93.50;96724.63;5080792;28;20035;-57
2022/02/12 02:41:32;;;;;;;11.63;8.82;;;;;;;-0.34;93.11;96720.22;5082994;28;20028;-55
2022/02/12 02:43:57;;;;;;;10.13;9.00;;;;;;;-0.39;93.70;96716.97;5088689;28;20032;-57
2022/02/12 02:46:22;;;;;;;11.00;8.40;;;;;;;-0.42;93.80;96722.22;5083297;28;20399;-56
2022/02/12 02:48:48;;;;;;;13.02;8.73;;;;;;;-0.50;95.13;96716.47;5087316;28;20035;-54
2022/02/12 02:56:49;;;;;;;4.50;4.10;;;;;;;-0.46;92.38;96700.78;5087045;28;20152;-56
2022/02/12 02:59:14;;;;;;;4.38;3.97;;;;;;;-0.50;92.22;96704.38;5084936;28;20142;-56
2022/02/12 03:01:40;;;;;;;6.47;4.30;;;;;;;-0.46;91.52;96705.13;5085041;28;20377;-56
2022/02/12 03:04:06;;;;;;;3.78;3.47;;;;;;;-0.43;91.08;96702.44;5089077;28;20066;-57
2022/02/12 03:06:31;;;;;;;4.30;3.90;;;;;;;-0.36;90.92;96708.25;5087876;28;20103;-57
2022/02/12 03:08:59;;;;;;;4.15;3.80;;;;;;;-0.18;90.49;96709.38;5085990;28;20032;-56
2022/02/12 03:11:24;;;;;;;4.20;3.75;;;;;;;-0.31;91.00;96706.38;5079086;28;20036;-57
2022/02/12 03:13:53;;;;;;;4.53;4.10;;;;;;;-0.47;92.66;96703.44;5089218;28;20032;-56
2022/02/12 03:16:18;;;;;;;3.80;3.50;;;;;;;-0.35;90.98;96709.97;5083414;28;20415;-56
2022/02/12 03:18:46;;;;;;;4.07;3.78;;;;;;;-0.42;90.97;96701.53;5090661;28;20028;-56
2022/02/12 03:21:13;;;;;;;4.25;3.88;;;;;;;-0.46;91.21;96707.72;5091078;28;20127;-56
2022/02/12 03:23:39;;;;;;;3.72;3.42;;;;;;;-0.46;91.80;96703.38;5085401;28;20109;-55
2022/02/12 03:26:05;;;;;;;4.00;3.58;;;;;;;-0.42;91.54;96704.13;5083291;28;20020;-55
2022/02/12 03:28:30;;;;;;;3.50;3.20;;;;;;;-0.43;91.15;96697.25;5086232;28;20028;-55
2022/02/12 03:30:55;;;;;;;3.80;3.50;;;;;;;-0.48;92.04;96704.34;5088072;28;20509;-56
2022/02/12 03:33:21;;;;;;;3.20;3.00;;;;;;;-0.52;91.91;96692.41;5082874;28;20055;-56
2022/02/12 03:35:49;;;;;;;3.55;3.25;;;;;;;-0.58;91.90;96702.00;5079574;28;20024;-57
2022/02/12 03:38:18;;;;;;;3.55;3.25;;;;;;;-0.56;91.59;96701.97;5084154;28;20531;-56
2022/02/12 03:40:49;;;;;;;3.65;3.33;;;;;;;-0.62;91.59;96690.09;5090547;28;20036;-55
2022/02/12 03:43:15;;;;;;;3.30;3.00;;;;;;;-0.66;91.24;96696.25;5085128;28;20040;-57
2022/02/12 03:45:41;;;;;;;3.03;2.83;;;;;;;-0.69;90.70;96696.34;5057935;28;20032;-57
2022/02/12 03:48:07;;;;;;;4.10;3.05;;;;;;;-0.69;90.71;96693.75;5085432;28;20025;-54
2022/02/12 03:50:34;;;;;;;3.15;2.95;;;;;;;-0.55;90.02;96692.47;5081560;28;20557;-56
2022/02/12 03:53:02;;;;;;;4.07;3.22;;;;;;;-0.71;90.79;96698.16;5082677;28;20082;-56
2022/02/12 03:55:28;;;;;;;4.65;3.45;;;;;;;-0.82;90.96;96695.03;5086112;28;20055;-57
2022/02/12 03:57:54;;;;;;;3.20;3.00;;;;;;;-0.91;91.83;96691.84;5088203;28;20071;-56
2022/02/12 04:00:20;;;;;;;3.17;2.97;;;;;;;-0.95;91.61;96694.56;5082610;28;20061;-54
2022/02/12 04:02:46;;;;;;;3.13;2.90;;;;;;;-1.02;91.70;96693.91;5077940;28;20509;-55
2022/02/12 04:05:15;;;;;;;3.67;2.97;;;;;;;-1.00;91.20;96689.53;5090599;28;20019;-55
2022/02/12 04:07:42;;;;;;;3.90;3.60;;;;;;;-1.02;91.06;96694.75;5088423;28;20023;-55
2022/02/12 04:10:10;;;;;;;3.58;2.80;;;;;;;-1.08;91.89;96696.66;5081686;28;20616;-55
2022/02/12 04:12:35;;;;;;;4.82;3.40;;;;;;;-1.22;92.53;96695.31;5086760;28;20039;-56
2022/02/12 04:15:01;;;;;;;3.60;3.30;;;;;;;-1.32;92.87;96697.34;5092789;28;20032;-57
2022/02/12 04:17:27;;;;;;;3.60;3.30;;;;;;;-1.35;92.46;96702.59;5092695;28;20129;-56
2022/02/12 04:19:52;;;;;;;3.60;3.40;;;;;;;-1.31;92.59;96700.78;5092770;28;20032;-56
2022/02/12 04:22:18;;;;;;;3.75;3.45;;;;;;;-1.39;92.80;96705.31;5092861;28;20074;-54
2022/02/12 04:24:43;;;;;;;4.22;3.92;;;;;;;-1.45;92.81;96704.59;5092461;28;20421;-56
2022/02/12 04:27:09;;;;;;;4.68;4.28;;;;;;;-1.50;93.21;96700.47;5092701;28;20472;-55
2022/02/12 04:29:34;;;;;;;3.60;3.40;;;;;;;-1.52;92.59;96703.06;5092220;28;20035;-55
2022/02/12 04:31:59;;;;;;;4.00;3.70;;;;;;;-1.60;92.94;96710.19;5092571;28;20125;-56
2022/02/12 04:34:25;;;;;;;4.07;3.65;;;;;;;-1.65;93.12;96705.16;5092505;28;20055;-55
2022/02/12 04:36:50;;;;;;;4.00;3.70;;;;;;;-1.70;93.15;96711.31;5090806;28;20024;-55
2022/02/12 04:39:16;;;;;;;4.10;3.80;;;;;;;-1.83;93.76;96714.25;5091627;28;20618;-56
2022/02/12 04:41:42;;;;;;;4.07;3.85;;;;;;;-1.90;94.12;96710.13;5092368;28;20483;-55
2022/02/12 04:44:08;;;;;;;3.42;3.13;;;;;;;-1.91;94.20;96708.41;5092437;28;20031;-56
2022/02/12 04:46:33;;;;;;;4.07;3.67;;;;;;;-1.96;94.72;96705.13;5092218;28;20020;-56
2022/02/12 04:48:59;;;;;;;3.90;3.60;;;;;;;-2.00;94.48;96708.69;5092343;28;20073;-54
2022/02/12 04:51:24;;;;;;;3.50;3.30;;;;;;;-2.07;95.33;96707.97;5092172;28;20028;-54
2022/02/12 04:53:51;;;;;;;3.72;3.53;;;;;;;-2.16;95.04;96709.91;5091985;28;20032;-54
2022/02/12 04:56:16;;;;;;;4.47;3.85;;;;;;;-2.19;95.94;96706.56;5092284;28;20030;-56
2022/02/12 04:58:42;;;;;;;3.28;3.00;;;;;;;-2.21;95.50;96705.75;5091998;28;20411;-54
2022/02/12 05:01:19;;;;;;;3.83;3.60;;;;;;;-2.25;95.59;96704.97;5091931;28;20035;-55
2022/02/12 05:03:51;;;;;;;4.28;3.60;;;;;;;-2.29;95.92;96703.38;5091230;28;20031;-55
2022/02/12 05:06:18;;;;;;;3.63;3.42;;;;;;;-2.32;95.48;96706.03;5092083;28;20020;-56
2022/02/12 05:08:44;;;;;;;3.90;3.70;;;;;;;-2.39;97.00;96702.75;5091901;28;20484;-55
2022/02/12 05:11:10;;;;;;;3.50;3.30;;;;;;;-2.42;96.46;96695.09;5091961;28;20045;-56
2022/02/12 05:13:36;;;;;;;3.70;3.50;;;;;;;-2.41;96.61;96704.50;5090923;28;20032;-56
2022/02/12 05:16:02;;;;;;;4.25;3.95;;;;;;;-2.41;96.43;96694.19;5091890;28;20384;-56
2022/02/12 05:18:28;;;;;;;4.55;4.18;;;;;;;-2.41;95.95;96691.63;5091216;28;20050;-55
2022/02/12 05:20:53;;;;;;;3.95;3.75;;;;;;;-2.39;95.95;96687.25;5091610;28;20035;-54
2022/02/12 05:23:19;;;;;;;4.22;3.92;;;;;;;-2.37;95.74;96687.25;5091327;28;20099;-55
2022/02/12 05:25:44;;;;;;;4.10;3.90;;;;;;;-2.37;95.74;96679.50;5091030;28;20038;-55
2022/02/12 05:28:09;;;;;;;4.40;4.10;;;;;;;-2.45;95.74;96693.41;5091675;28;20093;-53
2022/02/12 05:30:35;;;;;;;4.43;4.03;;;;;;;-2.47;96.10;96682.28;5091377;28;20024;-56
2022/02/12 05:33:00;;;;;;;3.72;3.42;;;;;;;-2.47;95.77;96684.88;5091715;28;20085;-56
2022/02/12 05:35:26;;;;;;;4.20;3.90;;;;;;;-2.49;95.73;96685.81;5091647;28;20434;-55
2022/02/12 05:37:52;;;;;;;3.95;3.70;;;;;;;-2.53;96.00;96684.19;5091540;28;20042;-54
2022/02/12 05:40:17;;;;;;;4.60;4.30;;;;;;;-2.51;96.16;96682.44;5091492;28;20040;-55
2022/02/12 05:42:43;;;;;;;4.25;4.00;;;;;;;-2.57;96.54;96682.56;5091407;28;20099;-55
2022/02/12 05:45:09;;;;;;;4.55;4.15;;;;;;;-2.60;97.02;96679.16;5091066;28;20028;-55
2022/02/12 05:47:39;;;;;;;4.82;4.53;;;;;;;-2.59;96.69;96690.34;5091364;28;20086;-56
2022/02/12 05:50:05;;;;;;;5.93;5.32;;;;;;;-2.65;96.66;96680.19;5091550;28;20020;-56
2022/02/12 05:52:30;;;;;;;5.85;5.32;;;;;;;-2.65;96.29;96691.31;5091209;28;20017;-55
2022/02/12 05:54:56;;;;;;;9.45;7.90;;;;;;;-2.65;97.25;96683.59;5091057;28;20126;-54
2022/02/12 05:57:21;;;;;;;8.60;7.68;;;;;;;-2.66;97.87;96689.63;5091369;28;20031;-56
2022/02/12 05:59:46;;;;;;;7.90;7.20;;;;;;;-2.66;97.38;96692.22;5073019;28;20035;-56
2022/02/12 06:02:12;;;;;;;8.05;6.47;;;;;;;-2.69;96.79;96700.03;5091277;28;20416;-56
2022/02/12 06:04:37;;;;;;;13.30;10.82;;;;;;;-2.71;96.44;96701.78;5091272;28;20093;-55
2022/02/12 06:07:03;;;;;;;13.00;11.63;;;;;;;-2.72;96.46;96702.69;5091412;28;20086;-55
2022/02/12 06:09:28;;;;;;;15.82;12.20;;;;;;;-2.75;96.06;96701.00;5090563;28;20024;-55
2022/02/12 06:11:54;;;;;;;11.07;9.88;;;;;;;-2.78;96.85;96701.09;5091165;28;20503;-56
2022/02/12 06:14:19;;;;;;;13.15;10.25;;;;;;;-2.82;96.53;96694.31;5091072;28;20024;-53
2022/02/12 06:16:44;;;;;;;15.55;10.50;;;;;;;-2.81;97.04;96702.88;5090999;28;20047;-55
2022/02/12 06:19:10;;;;;;;13.73;9.07;;;;;;;-2.84;97.03;96700.38;5091164;28;20020;-53
2022/02/12 06:21:35;;;;;;;10.70;9.38;;;;;;;-2.90;96.67;96698.78;5090766;28;20526;-55
2022/02/12 06:24:01;;;;;;;10.32;9.23;;;;;;;-2.92;97.02;96709.13;5091237;28;20483;-54
2022/02/12 06:26:26;;;;;;;10.13;9.23;;;;;;;-2.93;96.59;96702.28;5094579;28;20107;-54
2022/02/12 06:28:52;;;;;;;11.55;8.75;;;;;;;-2.95;96.11;96711.78;5095080;28;20066;-55
2022/02/12 06:31:17;;;;;;;9.20;7.88;;;;;;;-2.97;96.80;96710.97;5094969;28;20027;-54
2022/02/12 06:33:43;;;;;;;9.70;8.90;;;;;;;-2.96;97.12;96712.66;5094545;28;20024;-55
2022/02/12 06:36:08;;;;;;;8.35;7.65;;;;;;;-2.95;97.21;96716.06;5094907;28;20028;-56
2022/02/12 06:38:33;;;;;;;12.25;8.82;;;;;;;-2.98;96.96;96719.59;5094648;28;20016;-56
2022/02/12 06:40:59;;;;;;;9.07;8.18;;;;;;;-2.96;96.96;96722.97;5094786;28;20118;-56
2022/02/12 06:43:24;;;;;;;10.13;7.75;;;;;;;-2.96;97.58;96722.97;5094667;28;20031;-55
2022/02/12 06:45:50;;;;;;;8.82;7.88;;;;;;;-2.99;96.96;96723.00;5093674;28;20050;-55
2022/02/12 06:48:15;;;;;;;8.57;7.55;;;;;;;-3.00;96.69;96728.22;5094126;28;20084;-53
2022/02/12 06:50:41;;;;;;;8.23;7.55;;;;;;;-3.02;98.07;96733.41;5093519;28;20024;-53
2022/02/12 06:53:06;;;;;;;7.85;7.15;;;;;;;-3.03;97.66;96727.41;5093934;28;20020;-56
2022/02/12 06:55:31;;;;;;;7.63;6.93;;;;;;;-3.05;98.13;96730.88;5093654;28;20464;-54
2022/02/12 06:57:57;;;;;;;6.35;5.75;;;;;;;-3.03;97.17;96731.69;5093252;28;20024;-55
2022/02/12 07:00:22;;;;;;;6.47;5.88;;;;;;;-2.99;97.34;96737.66;5093500;28;20446;-56
2022/02/12 07:02:50;;;;;;;8.20;7.13;;;;;;;-2.96;98.21;96741.00;5093084;28;20030;-54
2022/02/12 07:05:16;;;;;;;7.07;6.40;;;;;;;-2.96;97.63;96743.59;5090363;28;20024;-57
2022/02/12 07:07:46;;;;;;;7.13;6.53;;;;;;;-2.96;97.86;96740.16;5093207;28;20027;-56
2022/02/12 07:10:13;;;;;;;7.97;7.18;;;;;;;-3.00;98.53;96757.41;5090553;28;20023;-54
2022/02/12 07:12:39;;;;;;;8.43;7.53;;;;;;;-2.97;99.01;96757.34;5093073;28;20016;-56
2022/02/12 07:15:04;;;;;;;12.02;8.07;;;;;;;-2.93;98.82;96755.53;5093923;28;20031;-56
2022/02/12 07:17:30;;;;;;;11.88;8.93;;;;;;;-2.90;98.70;96768.34;5093502;28;20044;-54
2022/02/12 07:19:55;;;;;;;9.75;7.80;;;;;;;-2.91;98.03;96766.66;5093908;28;20613;-55
2022/02/12 07:22:26;;;;;;;15.70;8.98;;;;;;;-2.92;98.79;96765.84;5093918;28;20016;-55
2022/02/12 07:24:52;;;;;;;9.90;8.77;;;;;;;-2.87;98.01;96773.47;5093337;28;20557;-55
2022/02/12 07:27:18;;;;;;;11.45;9.30;;;;;;;-2.84;98.28;96775.13;5093784;28;20076;-56
2022/02/12 07:29:44;;;;;;;14.75;10.82;;;;;;;-2.81;97.96;96777.63;5093471;28;20043;-59
2022/02/12 07:32:09;;;;;;;15.70;10.82;;;;;;;-2.77;98.06;96774.09;5092328;28;20032;-57
2022/02/12 07:34:35;;;;;;;14.75;13.27;;;;;;;-2.72;97.29;96779.16;5091967;28;20067;-54
2022/02/12 07:37:00;;;;;;;13.90;12.38;;;;;;;-2.72;97.83;96780.03;5090302;28;20031;-55
2022/02/12 07:39:27;;;;;;;20.52;18.38;;;;;;;-2.72;97.77;96780.03;5092681;28;20028;-52
2022/02/12 07:41:53;;;;;;;19.80;17.48;;;;;;;-2.76;98.54;96786.13;5095629;28;20433;-48
2022/02/12 07:44:18;;;;;;;18.25;16.30;;;;;;;-2.73;99.28;96780.91;5091856;28;20034;-49
2022/02/12 07:46:43;;;;;;;19.60;17.50;;;;;;;-2.65;98.09;96783.31;5092315;28;20023;-52
2022/02/12 07:49:09;;;;;;;18.58;16.58;;;;;;;-2.60;98.28;96784.06;5095564;28;20444;-51
2022/02/12 07:51:34;;;;;;;21.35;17.13;;;;;;;-2.56;98.06;96790.84;5091270;28;20040;-51
2022/02/12 07:54:00;;;;;;;20.77;17.35;;;;;;;-2.57;97.93;96786.56;5093688;28;20479;-49
2022/02/12 07:56:26;;;;;;;18.63;16.70;;;;;;;-2.59;98.45;96789.16;5098536;28;20043;-46
2022/02/12 07:58:51;;;;;;;19.42;17.42;;;;;;;-2.62;98.86;96786.66;5094365;28;20050;-51
2022/02/12 08:01:16;;;;;;;16.90;15.30;;;;;;;-2.61;98.80;96796.09;5092162;28;20488;-45
2022/02/12 08:03:42;;;;;;;18.40;16.58;;;;;;;-2.56;98.40;96798.56;5090608;28;20039;-47
2022/02/12 08:07:27;;;;;;;19.95;17.85;;;;;;;-2.54;98.21;96804.53;5089663;28;20027;-49
2022/02/12 08:08:53;;;;;;;19.30;17.27;;;;;;;-2.49;98.12;96804.44;5090212;28;20533;-46
2022/02/12 08:11:26;;;;;;;17.88;16.08;;;;;;;-2.48;98.37;96800.97;5099054;28;20024;-47
2022/02/12 08:13:51;;;;;;;18.17;16.27;;;;;;;-2.49;98.27;96802.69;5093732;28;20050;-52
2022/02/12 08:16:17;;;;;;;18.27;16.25;;;;;;;-2.49;98.58;96802.69;5095063;28;20028;-44
2022/02/12 08:18:43;;;;;;;17.95;16.05;;;;;;;-2.47;98.58;96800.94;5065913;28;20034;-47
2022/02/12 08:21:08;;;;;;;20.25;17.67;;;;;;;-2.43;98.44;96800.84;5098934;28;20130;-48
2022/02/12 08:23:34;;;;;;;17.95;16.10;;;;;;;-2.40;98.94;96799.06;5092976;28;20031;-48
2022/02/12 08:25:59;;;;;;;20.05;17.30;;;;;;;-2.38;98.62;96799.88;5097766;28;20028;-47
2022/02/12 08:28:25;;;;;;;18.95;16.85;;;;;;;-2.36;98.44;96802.44;5092732;28;20036;-47
2022/02/12 08:30:50;;;;;;;18.60;16.77;;;;;;;-2.36;98.52;96800.69;5100086;28;20032;-50
2022/02/12 08:33:16;;;;;;;18.83;16.83;;;;;;;-2.34;98.34;96798.91;5096927;28;20035;-45
2022/02/12 08:35:41;;;;;;;18.08;15.98;;;;;;;-2.33;98.08;96800.59;5091665;28;20032;-51
2022/02/12 08:38:07;;;;;;;19.20;17.20;;;;;;;-2.33;97.94;96803.19;5093470;28;20044;-51
2022/02/12 08:40:32;;;;;;;21.42;17.45;;;;;;;-2.34;98.88;96798.91;5093955;28;20036;-50
2022/02/12 08:42:58;;;;;;;22.92;18.27;;;;;;;-2.17;98.54;96805.41;5093860;28;20031;-47
2022/02/12 08:45:24;;;;;;;21.55;19.33;;;;;;;-1.66;99.30;96795.56;5093374;28;20440;-50
2022/02/12 08:47:49;;;;;;;32.95;29.35;;;;;;;-1.14;96.71;96805.41;5093020;28;20587;-47
2022/02/12 08:50:15;;;;;;;28.17;24.75;;;;;;;-0.64;96.78;96803.09;5095131;28;20145;-46
2022/02/12 08:52:42;;;;;;;25.90;23.05;;;;;;;-0.07;96.43;96803.09;5097294;28;20484;-47
2022/02/12 08:55:09;;;;;;;19.95;15.77;;;;;;;0.52;93.20;96808.91;5092560;28;20031;-47
2022/02/12 08:57:35;;;;;;;17.98;16.17;;;;;;;0.77;90.08;96799.47;5087626;28;20103;-46
2022/02/12 09:00:00;;;;;;;15.80;14.30;;;;;;;0.89;90.39;96800.75;5095388;28;20035;-46
2022/02/12 09:02:26;;;;;;;9.68;8.85;;;;;;;0.84;89.08;96794.00;5100398;28;20567;-49
2022/02/12 09:04:51;;;;;;;8.30;7.60;;;;;;;0.80;88.53;96799.34;5093916;28;20028;-48
2022/02/12 09:07:17;;;;;;;10.50;7.65;;;;;;;0.86;90.42;96793.94;5097152;28;20024;-46
2022/02/12 09:09:42;;;;;;;12.77;8.48;;;;;;;1.06;90.55;96795.81;5091388;28;20442;-45
2022/02/12 09:12:09;;;;;;;16.95;8.90;;;;;;;1.08;89.88;96796.59;5088836;28;20107;-48
2022/02/12 09:14:34;;;;;;;11.95;7.28;;;;;;;1.13;90.00;96799.88;5090767;28;20039;-45
2022/02/12 09:17:00;;;;;;;7.32;5.93;;;;;;;1.38;86.45;96793.75;5090300;28;20032;-47
2022/02/12 09:19:26;;;;;;;12.18;5.78;;;;;;;1.60;84.65;96798.13;5089572;28;20097;-47
2022/02/12 09:21:51;;;;;;;14.85;5.82;;;;;;;1.74;85.03;96801.94;5090538;28;20028;-45
2022/02/12 09:24:17;;;;;;;7.80;6.25;;;;;;;1.91;84.57;96790.88;5090730;28;20027;-46
2022/02/12 09:26:42;;;;;;;6.90;6.25;;;;;;;2.12;82.49;96797.00;5090068;28;20115;-46
2022/02/12 09:29:08;;;;;;;6.15;5.28;;;;;;;2.36;80.87;96800.31;5089908;28;20081;-46
2022/02/12 09:31:34;;;;;;;4.85;4.45;;;;;;;2.78;78.93;96790.75;5092167;28;20040;-47
2022/02/12 09:34:00;;;;;;;8.60;4.45;;;;;;;2.90;76.99;96798.94;5090510;28;20035;-46
2022/02/12 09:36:25;;;;;;;5.10;3.38;;;;;;;3.03;76.38;96794.03;5090749;28;20046;-48
2022/02/12 09:38:51;;;;;;;4.00;3.60;;;;;;;3.15;75.72;96796.09;5092195;28;20036;-46
2022/02/12 09:41:25;;;;;;;3.67;3.03;;;;;;;3.43;75.62;96792.22;5088773;28;20118;-46
2022/02/12 09:43:54;;;;;;;3.58;3.28;;;;;;;3.67;74.43;96795.47;5092660;28;20050;-45
2022/02/12 09:46:25;;;;;;;5.90;3.40;;;;;;;4.01;72.67;96793.84;5091452;28;20036;-49
2022/02/12 09:48:51;;;;;;;4.53;2.80;;;;;;;4.38;71.54;96787.75;5091024;28;20043;-45
2022/02/12 09:51:18;;;;;;;10.35;3.13;;;;;;;4.51;70.54;96793.19;5090552;28;20038;-49
2022/02/12 09:53:44;;;;;;;2.63;2.50;;;;;;;4.83;68.32;96786.31;5093065;28;20035;-46
2022/02/12 09:56:10;;;;;;;2.88;2.65;;;;;;;4.93;67.49;96789.28;5088736;28;20466;-49
2022/02/12 09:58:35;;;;;;;4.63;3.17;;;;;;;5.18;67.92;96782.78;5092053;28;20060;-51
2022/02/12 10:01:01;;;;;;;3.78;3.20;;;;;;;5.04;65.68;96783.50;5098027;28;20483;-49
2022/02/12 10:03:26;;;;;;;3.00;2.70;;;;;;;5.36;66.92;96773.09;5075616;28;20024;-46
2022/02/12 10:05:53;;;;;;;2.75;2.47;;;;;;;5.57;65.10;96784.19;5097387;28;20101;-45
2022/02/12 10:08:21;;;;;;;2.88;2.67;;;;;;;5.73;64.89;96778.94;5096890;28;20408;-50
2022/02/12 10:10:49;;;;;;;3.15;2.83;;;;;;;6.07;63.34;96776.22;5095562;28;20039;-51
2022/02/12 10:13:22;;;;;;;3.28;2.83;;;;;;;5.99;61.98;96784.47;5096802;28;20089;-46
2022/02/12 10:15:49;;;;;;;2.63;2.40;;;;;;;6.16;61.36;96780.91;5096327;28;20618;-50
2022/02/12 10:18:19;;;;;;;2.72;2.53;;;;;;;6.21;62.48;96785.06;5095754;28;20031;-50
2022/02/12 10:20:44;;;;;;;3.05;2.83;;;;;;;6.01;60.53;96776.59;5096087;28;20059;-50
2022/02/12 10:23:16;;;;;;;2.70;2.50;;;;;;;6.09;62.09;96786.63;5099152;28;20479;-51
2022/02/12 10:25:44;;;;;;;3.30;2.97;;;;;;;6.11;59.29;96780.34;5094536;28;20574;-51
2022/02/12 10:28:12;;;;;;;2.65;2.50;;;;;;;6.43;61.92;96774.19;5099173;28;20501;-51
2022/02/12 10:30:38;;;;;;;4.32;3.92;;;;;;;6.63;60.90;96782.66;5099959;28;20031;-51
2022/02/12 10:33:07;;;;;;;4.15;3.75;;;;;;;6.86;61.99;96776.06;5094936;28;20179;-51
2022/02/12 10:35:33;;;;;;;3.10;2.90;;;;;;;6.87;60.51;96777.75;5094264;28;20026;-48
2022/02/12 10:38:02;;;;;;;5.30;3.50;;;;;;;7.15;59.99;96774.28;5096695;28;20551;-49
2022/02/12 10:40:29;;;;;;;3.53;3.22;;;;;;;7.26;58.87;96783.25;5097872;28;20467;-49
2022/02/12 10:42:55;;;;;;;3.40;3.10;;;;;;;7.49;56.20;96775.75;5101130;28;20395;-50
2022/02/12 10:45:22;;;;;;;3.10;2.80;;;;;;;7.87;57.12;96770.69;5095024;28;20051;-48
2022/02/12 10:47:49;;;;;;;4.38;2.97;;;;;;;8.26;56.30;96772.59;5094939;28;20082;-49
2022/02/12 10:50:19;;;;;;;4.68;2.95;;;;;;;8.10;54.65;96763.13;5095911;28;20058;-49
2022/02/12 10:52:44;;;;;;;2.80;2.65;;;;;;;7.90;55.55;96756.56;5099137;28;20394;-52
2022/02/12 10:55:30;;;;;;;3.60;3.30;;;;;;;8.27;54.89;96756.75;5096132;28;20031;-50
2022/02/12 10:57:57;;;;;;;2.70;2.55;;;;;;;8.50;52.36;96762.28;5098977;28;20034;-48
2022/02/12 11:00:25;;;;;;;3.30;3.10;;;;;;;8.65;53.19;96757.81;5092931;28;20032;-51
2022/02/12 11:02:52;;;;;;;2.90;2.70;;;;;;;8.94;53.29;96747.09;5093793;28;20384;-52
2022/02/12 11:05:19;;;;;;;2.45;2.25;;;;;;;9.24;52.78;96748.53;5096512;28;20028;-50
2022/02/12 11:07:45;;;;;;;3.17;2.97;;;;;;;9.08;50.22;96748.75;5097077;28;20036;-49
2022/02/12 11:10:11;;;;;;;3.58;3.28;;;;;;;8.99;50.30;96738.91;5092693;28;20039;-49
2022/02/12 11:12:36;;;;;;;3.28;3.08;;;;;;;9.34;51.05;96737.38;5095052;28;20054;-49
2022/02/12 11:15:02;;;;;;;3.35;2.65;;;;;;;9.26;50.36;96735.28;5095649;28;20028;-49
2022/02/12 11:17:31;;;;;;;2.75;2.55;;;;;;;9.20;52.11;96733.91;5094970;28;20395;-51
2022/02/12 11:19:57;;;;;;;3.05;2.85;;;;;;;9.33;51.39;96728.63;5095251;28;20173;-51
2022/02/12 11:22:23;;;;;;;2.72;2.53;;;;;;;9.80;50.95;96722.69;5095041;28;20024;-49
2022/02/12 11:24:48;;;;;;;5.03;4.47;;;;;;;9.92;49.45;96716.56;5096236;28;20039;-53
2022/02/12 11:27:19;;;;;;;7.35;4.35;;;;;;;10.34;49.57;96710.00;5098584;28;20020;-50
2022/02/12 11:29:46;;;;;;;5.45;4.93;;;;;;;10.57;49.54;96706.50;5097366;28;20189;-50
2022/02/12 11:32:16;;;;;;;7.28;5.55;;;;;;;10.50;47.01;96699.19;5093461;28;20055;-48